Saturday, November 1, 2014, 5:29 AM EDT

KSHD, Staunton / Shenandoah

Location: Weyers Cave, VA, United States Lat: 38.267
Local Time: 5:29 AM EDT ( 9:29 GMT) Lon: -78.9
Time Zone: US/Eastern Elev: 1200 ft

Show me the last for .
Show Decoded

2014-11-01 05:15 METAR KSHD 010915Z AUTO 01004KT 10SM BKN037 OVC045 06/04 A2981 RMK AO2 T00590035
                 =
2014-11-01 04:55 METAR KSHD 010855Z AUTO 02007KT 10SM BKN035 OVC043 06/04 A2981 RMK AO2 60001
                 T00600035 =
2014-11-01 04:35 METAR KSHD 010835Z AUTO 01004KT 10SM SCT020 OVC031 06/04 A2981 RMK AO2 T00600037
                 =
2014-11-01 04:15 METAR KSHD 010815Z AUTO 36004KT 10SM BKN018 OVC023 06/04 A2981 RMK AO2 T00600039
                 =
2014-11-01 03:55 METAR KSHD 010755Z AUTO 01005KT 7SM -DZ OVC016 06/04 A2981 RMK AO2 T00610042 =
2014-11-01 03:35 METAR KSHD 010735Z AUTO 36003KT 5SM -DZ SCT009 BKN014 OVC019 06/05 A2981 RMK AO2
                 T00620046 =
2014-11-01 03:15 METAR KSHD 010715Z AUTO 01004KT 5SM BR SCT009 BKN017 OVC029 06/05 A2981 RMK AO2
                 T00610046 =
2014-11-01 02:55 METAR KSHD 010655Z AUTO 02004KT 5SM -RA SCT015 BKN029 OVC036 06/05 A2981 RMK AO2
                 P0001 T00620046 =
2014-11-01 02:35 METAR KSHD 010635Z AUTO 03005KT 5SM -RA SCT007 OVC027 07/05 A2981 RMK AO2
                 T00650048 =
2014-11-01 02:15 METAR KSHD 010615Z AUTO 02004KT 5SM BR BKN007 OVC025 07/05 A2982 RMK AO2
                 T00660051 =
2014-11-01 01:55 METAR KSHD 010555Z AUTO 01003KT 5SM BR SCT007 OVC025 07/05 A2982 RMK AO2 60002
                 T00660051 10091 20065 401111015 =
2014-11-01 01:35 METAR KSHD 010535Z AUTO 00000KT 5SM BR OVC027 07/05 A2982 RMK AO2 T00650051 =
2014-11-01 01:15 METAR KSHD 010515Z AUTO 04003KT 5SM DZ BKN027 OVC034 07/05 A2982 RMK AO2
                 T00660051 =
2014-11-01 00:55 METAR KSHD 010455Z AUTO 02003KT 5SM DZ OVC032 07/05 A2983 RMK AO2 T00680052 =
2014-11-01 00:35 METAR KSHD 010435Z AUTO 00000KT 5SM DZ OVC029 07/05 A2984 RMK AO2 T00680052 =
2014-11-01 00:15 METAR KSHD 010415Z AUTO 35003KT 5SM -DZ OVC031 07/06 A2984 RMK AO2 T00700055 =
2014-10-31 23:35 METAR KSHD 010335Z AUTO 00000KT 5SM DZ OVC027 07/05 A2984 RMK AO2 P0001
                 T00710054 =
2014-10-31 23:15 METAR KSHD 010315Z AUTO 00000KT 7SM DZ OVC027 07/05 A2985 RMK AO2 P0001
                 T00720052 =
2014-10-31 22:55 METAR KSHD 010255Z AUTO 00000KT 7SM RA BKN029 OVC034 07/05 A2985 RMK AO2 P0001
                 60001 T00720051 =
2014-10-31 22:35 METAR KSHD 010235Z AUTO 00000KT 7SM -RA OVC034 07/05 A2985 RMK AO2 P0001
                 T00730052 =
2014-10-31 22:15 METAR KSHD 010215Z AUTO 00000KT 10SM DZ OVC034 07/05 A2985 RMK AO2 T00730051 =
2014-10-31 21:55 METAR KSHD 010155Z AUTO 00000KT 10SM -DZ OVC036 07/05 A2985 RMK AO2 T00730050 =
2014-10-31 21:35 METAR KSHD 010135Z AUTO 00000KT 10SM DZ OVC036 07/05 A2985 RMK AO2 T00740051 =
2014-10-31 21:15 METAR KSHD 010115Z AUTO 29003KT 10SM -DZ OVC040 08/05 A2985 RMK AO2 T00750050 =
2014-10-31 20:55 METAR KSHD 010055Z AUTO 00000KT 10SM DZ OVC038 08/05 A2985 RMK AO2 T00750051 =
2014-10-31 20:35 METAR KSHD 010035Z AUTO 00000KT 10SM DZ OVC038 09/04 A2985 RMK AO2 T00860040 =
2014-10-31 20:15 METAR KSHD 010015Z AUTO 00000KT 10SM RA BKN040 OVC050 08/05 A2985 RMK AO2
                 T00830045 =
2014-10-31 19:55 METAR KSHD 312355Z AUTO 00000KT 10SM -DZ BKN046 OVC050 09/03 A2984 RMK AO2
                 T00900029 10111 20087 =
2014-10-31 19:35 METAR KSHD 312335Z AUTO 00000KT 10SM BKN046 BKN060 OVC095 09/03 A2984 RMK AO2
                 T00900025 =
2014-10-31 19:15 METAR KSHD 312315Z AUTO 00000KT 10SM BKN060 OVC095 09/02 A2984 RMK AO2 T00920024
                 =
2014-10-31 18:55 METAR KSHD 312255Z AUTO 00000KT 10SM OVC060 09/02 A2984 RMK AO2 T00940024 =
2014-10-31 18:35 METAR KSHD 312235Z AUTO 00000KT 10SM OVC050 10/03 A2984 RMK AO2 T00950029 =
2014-10-31 18:15 METAR KSHD 312215Z AUTO 00000KT 10SM SCT050 OVC055 10/02 A2984 RMK AO2 T00970024
                 =
2014-10-31 17:55 METAR KSHD 312155Z AUTO 00000KT 10SM SCT043 OVC050 10/02 A2984 RMK AO2 T00990024
                 =
2014-10-31 17:35 METAR KSHD 312135Z AUTO 00000KT 10SM OVC050 10/02 A2985 RMK AO2 T01010021 =
2014-10-31 17:15 METAR KSHD 312115Z AUTO 07003KT 10SM OVC050 11/02 A2984 RMK AO2 T01050019 =
2014-10-31 16:55 METAR KSHD 312055Z AUTO 00000KT 10SM OVC050 11/02 A2984 RMK AO2 LTG DSNT SE
                 T01060018 =
2014-10-31 16:35 METAR KSHD 312035Z AUTO 00000KT 10SM OVC050 11/02 A2985 RMK AO2 T01060015 =
2014-10-31 16:15 METAR KSHD 312015Z AUTO 00000KT 10SM OVC050 11/01 A2985 RMK AO2 T01060014 =
2014-10-31 15:55 METAR KSHD 311955Z AUTO 00000KT 10SM OVC050 11/01 A2985 RMK AO2 T01070014 =
2014-10-31 15:35 METAR KSHD 311935Z AUTO 08003KT 10SM OVC050 11/02 A2985 RMK AO2 T01100019 =
2014-10-31 15:15 METAR KSHD 311915Z AUTO 00000KT 10SM OVC050 11/01 A2987 RMK AO2 T01070013 =
2014-10-31 14:55 METAR KSHD 311855Z AUTO 00000KT 10SM OVC050 11/01 A2987 RMK AO2 T01050009 =
2014-10-31 14:35 METAR KSHD 311835Z AUTO 00000KT 10SM SCT044 OVC050 11/01 A2988 RMK AO2 T01050009
                 =
2014-10-31 14:15 METAR KSHD 311815Z AUTO 00000KT 10SM OVC050 11/01 A2989 RMK AO2 T01050013 =
2014-10-31 13:55 METAR KSHD 311755Z AUTO 00000KT 10SM SCT043 OVC050 10/02 A2989 RMK AO2 T01000016
                 10100 20008 =
2014-10-31 13:35 METAR KSHD 311735Z AUTO 00000KT 10SM SCT045 OVC050 10/02 A2991 RMK AO2 T00990021
                 =
2014-10-31 13:15 METAR KSHD 311715Z AUTO 00000KT 10SM OVC050 10/02 A2991 RMK AO2 T00950017 =
2014-10-31 12:55 METAR KSHD 311655Z AUTO 00000KT 10SM OVC050 09/02 A2993 RMK AO2 T00940024 =
2014-10-31 12:35 METAR KSHD 311635Z AUTO 00000KT 10SM OVC050 09/02 A2994 RMK AO2 T00890020 =
2014-10-31 12:15 METAR KSHD 311615Z AUTO 00000KT 10SM OVC050 08/02 A2995 RMK AO2 T00830021 =
2014-10-31 11:55 METAR KSHD 311555Z AUTO 00000KT 10SM OVC050 08/03 A2996 RMK AO2 T00780025 =
2014-10-31 11:35 METAR KSHD 311535Z AUTO 00000KT 10SM BKN044 OVC050 08/03 A2997 RMK AO2 T00750029
                 =
2014-10-31 11:15 METAR KSHD 311515Z AUTO 12003KT 10SM OVC044 07/03 A2998 RMK AO2 T00710026 =
2014-10-31 10:55 METAR KSHD 311455Z AUTO 00000KT 10SM OVC044 07/02 A2998 RMK AO2 T00700024 =
2014-10-31 10:35 METAR KSHD 311435Z AUTO 00000KT 10SM BKN044 OVC050 06/02 A2998 RMK AO2 T00640021
                 =
2014-10-31 10:15 METAR KSHD 311415Z AUTO 00000KT 10SM BKN050 06/02 A2999 RMK AO2 T00630022 =
2014-10-31 09:55 METAR KSHD 311355Z AUTO 00000KT 10SM OVC050 05/02 A2999 RMK AO2 T00480023 =
2014-10-31 09:35 METAR KSHD 311335Z AUTO 00000KT 10SM OVC048 03/01 A3000 RMK AO2 T00310011 =
2014-10-31 09:15 METAR KSHD 311315Z AUTO 00000KT 10SM OVC046 02/00 A3000 RMK AO2 T00230004 =
2014-10-31 08:55 METAR KSHD 311255Z AUTO 00000KT 7SM OVC042 02/01 A3000 RMK AO2 T00210005 =
2014-10-31 08:35 METAR KSHD 311235Z AUTO 00000KT 7SM OVC042 01/00 A3000 RMK AO2 T00140000 =
2014-10-31 08:15 METAR KSHD 311215Z AUTO 00000KT 5SM BR OVC042 01/00 A3000 RMK AO2 T00101001 =
2014-10-31 07:55 METAR KSHD 311155Z AUTO 00000KT 7SM OVC044 01/00 A3000 RMK AO2 T00081002 10010
                 21015 =
2014-10-31 07:35 METAR KSHD 311135Z AUTO 00000KT 7SM OVC044 00/M01 A3001 RMK AO2 T00041007 =
2014-10-31 07:15 METAR KSHD 311115Z AUTO 00000KT 7SM OVC044 00/M01 A3001 RMK AO2 T00001010 =
2014-10-31 06:55 METAR KSHD 311055Z AUTO 00000KT 7SM OVC044 00/M01 A3001 RMK AO2 T10011012 =
2014-10-31 06:35 METAR KSHD 311035Z AUTO 00000KT 5SM BR OVC044 M01/M02 A3001 RMK AO2 T10111024 =
2014-10-31 06:15 METAR KSHD 311015Z AUTO 00000KT 4SM BR OVC046 M01/M02 A3001 RMK AO2 T10091021 =
2014-10-31 05:55 METAR KSHD 310955Z AUTO 00000KT 5SM BR BKN046 M01/M02 A3002 RMK AO2 T10061018 =
2014-10-31 05:35 METAR KSHD 310935Z AUTO 00000KT 7SM SCT046 M01/M02 A3002 RMK AO2 T10091021 =

Support USWX by starting your Amazon purchase here.